Disclaimer

Please do not use the information listed here in-flight or in-navigation, as they are not provided to us by the airports but are provided by volunteers, so they might be outdated.

Search


Regions


Airport information page

No radio frequency information is available.

Airport informations:
Latitude: 22° 29' 53.43" S
Longitude: 068° 54' 12.87" W
Elevation: 7543 feet - 2299 meters
Operating hours: Remarks
Operating agency: Civil government, landing fees and diplomatic clearance may be required
Timezone: UTC-4(-3DT)
Fuel: Aviation Gasoline (AVGAS), octane unknown.

Jet fuel avaiable but type is unknown.

Runway information:
10/28 - 9478 x 98 feet< - >2889 x 30 meters

Recent METARs:
SCCF 190200Z 24005KT CAVOK 14/M09 Q1026
SCCF 190200Z 24005KT CAVOK 14/M09 Q1026
SCCF 190300Z 18004KT CAVOK 11/M11 Q1027

Airport on the map: